sensor_id;sensor_type;location;lat;lon;timestamp;pressure;altitude;pressure_sealevel;temperature;humidity
57574;BME280;68988;49.000;21.242;2023-04-30T00:00:44;98365.28;;;21.63;37.83
57574;BME280;68988;49.000;21.242;2023-04-30T00:03:09;98360.72;;;21.63;37.78
57574;BME280;68988;49.000;21.242;2023-04-30T00:05:35;98369.78;;;21.62;37.73
57574;BME280;68988;49.000;21.242;2023-04-30T00:08:01;98369.78;;;21.62;37.75
57574;BME280;68988;49.000;21.242;2023-04-30T00:10:26;98375.13;;;21.62;37.96
57574;BME280;68988;49.000;21.242;2023-04-30T00:12:52;98366.59;;;21.60;37.76
57574;BME280;68988;49.000;21.242;2023-04-30T00:15:17;98355.13;;;21.60;37.57
57574;BME280;68988;49.000;21.242;2023-04-30T00:17:43;98366.59;;;21.60;37.83
57574;BME280;68988;49.000;21.242;2023-04-30T00:20:08;98358.31;;;21.62;37.63
57574;BME280;68988;49.000;21.242;2023-04-30T00:22:34;98357.78;;;21.60;37.85
57574;BME280;68988;49.000;21.242;2023-04-30T00:25:00;98355.91;;;21.60;37.87
57574;BME280;68988;49.000;21.242;2023-04-30T00:27:25;98371.91;;;21.60;37.86
57574;BME280;68988;49.000;21.242;2023-04-30T00:29:51;98371.91;;;21.60;37.65
57574;BME280;68988;49.000;21.242;2023-04-30T00:32:16;98366.59;;;21.60;37.71
57574;BME280;68988;49.000;21.242;2023-04-30T00:34:42;98370.28;;;21.59;37.66
57574;BME280;68988;49.000;21.242;2023-04-30T00:37:07;98378.03;;;21.61;37.80
57574;BME280;68988;49.000;21.242;2023-04-30T00:39:32;98374.59;;;21.60;37.72
57574;BME280;68988;49.000;21.242;2023-04-30T00:41:58;98377.78;;;21.57;37.84
57574;BME280;68988;49.000;21.242;2023-04-30T00:44:23;98371.91;;;21.60;37.99
57574;BME280;68988;49.000;21.242;2023-04-30T00:46:48;98370.28;;;21.59;37.73
57574;BME280;68988;49.000;21.242;2023-04-30T00:49:14;98361.75;;;21.57;37.84
57574;BME280;68988;49.000;21.242;2023-04-30T00:51:40;98363.38;;;21.58;37.90
57574;BME280;68988;49.000;21.242;2023-04-30T00:54:07;98360.13;;;21.56;37.87
57574;BME280;68988;49.000;21.242;2023-04-30T00:56:32;98362.81;;;21.56;37.75
57574;BME280;68988;49.000;21.242;2023-04-30T00:58:58;98367.09;;;21.57;37.62
57574;BME280;68988;49.000;21.242;2023-04-30T01:01:24;98367.63;;;21.59;37.92
57574;BME280;68988;49.000;21.242;2023-04-30T01:03:51;98367.06;;;21.52;37.88
57574;BME280;68988;49.000;21.242;2023-04-30T01:06:16;98367.34;;;21.56;37.96
57574;BME280;68988;49.000;21.242;2023-04-30T01:08:42;98372.44;;;21.57;38.01
57574;BME280;68988;49.000;21.242;2023-04-30T01:14:11;98375.63;;;21.59;37.80
57574;BME280;68988;49.000;21.242;2023-04-30T01:16:51;98376.72;;;21.58;37.91
57574;BME280;68988;49.000;21.242;2023-04-30T01:19:37;98375.63;;;21.59;37.76
57574;BME280;68988;49.000;21.242;2023-04-30T01:22:03;98375.06;;;21.52;37.94
57574;BME280;68988;49.000;21.242;2023-04-30T01:30:12;98378.53;;;21.53;37.97
57574;BME280;68988;49.000;21.242;2023-04-30T01:32:38;98371.84;;;21.50;38.02
57574;BME280;68988;49.000;21.242;2023-04-30T01:35:03;98369.75;;;21.52;38.06
57574;BME280;68988;49.000;21.242;2023-04-30T01:42:43;98382.00;;;21.53;38.06
57574;BME280;68988;49.000;21.242;2023-04-30T01:47:49;98381.22;;;21.53;37.63
57574;BME280;68988;49.000;21.242;2023-04-30T01:50:29;98385.22;;;21.55;37.89
57574;BME280;68988;49.000;21.242;2023-04-30T01:52:59;98384.66;;;21.53;37.76
57574;BME280;68988;49.000;21.242;2023-04-30T01:58:00;98380.66;;;21.51;37.83
57574;BME280;68988;49.000;21.242;2023-04-30T02:00:28;98388.16;;;21.54;37.94
57574;BME280;68988;49.000;21.242;2023-04-30T02:02:57;98382.50;;;21.50;37.91
57574;BME280;68988;49.000;21.242;2023-04-30T02:05:23;98391.09;;;21.52;37.96
57574;BME280;68988;49.000;21.242;2023-04-30T02:07:50;98387.06;;;21.50;38.05
57574;BME280;68988;49.000;21.242;2023-04-30T02:10:17;98387.06;;;21.50;37.91
57574;BME280;68988;49.000;21.242;2023-04-30T02:12:42;98386.25;;;21.49;37.84
57574;BME280;68988;49.000;21.242;2023-04-30T02:15:09;98391.59;;;21.49;37.91
57574;BME280;68988;49.000;21.242;2023-04-30T02:17:34;98390.75;;;21.49;37.93
57574;BME280;68988;49.000;21.242;2023-04-30T02:20:00;98395.28;;;21.48;38.05
57574;BME280;68988;49.000;21.242;2023-04-30T02:22:25;98395.06;;;21.50;37.87
57574;BME280;68988;49.000;21.242;2023-04-30T02:24:51;98389.47;;;21.51;37.88
57574;BME280;68988;49.000;21.242;2023-04-30T02:27:21;98388.94;;;21.49;37.96
57574;BME280;68988;49.000;21.242;2023-04-30T02:29:47;98395.28;;;21.48;37.82
57574;BME280;68988;49.000;21.242;2023-04-30T02:32:13;98392.38;;;21.50;37.95
57574;BME280;68988;49.000;21.242;2023-04-30T02:34:39;98396.06;;;21.49;37.83
57574;BME280;68988;49.000;21.242;2023-04-30T02:37:05;98398.53;;;21.50;37.79
57574;BME280;68988;49.000;21.242;2023-04-30T02:39:30;98401.41;;;21.49;37.80
57574;BME280;68988;49.000;21.242;2023-04-30T02:41:55;98388.84;;;21.44;37.98
57574;BME280;68988;49.000;21.242;2023-04-30T02:44:21;98399.59;;;21.49;37.92
57574;BME280;68988;49.000;21.242;2023-04-30T02:46:46;98399.81;;;21.48;37.82
57574;BME280;68988;49.000;21.242;2023-04-30T02:49:11;98403.06;;;21.50;37.97
57574;BME280;68988;49.000;21.242;2023-04-30T02:51:37;98397.16;;;21.48;37.98
57574;BME280;68988;49.000;21.242;2023-04-30T02:54:02;98400.63;;;21.48;37.69
57574;BME280;68988;49.000;21.242;2023-04-30T02:56:28;98399.81;;;21.48;38.13
57574;BME280;68988;49.000;21.242;2023-04-30T02:58:53;98403.81;;;21.45;37.74
57574;BME280;68988;49.000;21.242;2023-04-30T03:01:18;98406.47;;;21.45;37.94
57574;BME280;68988;49.000;21.242;2023-04-30T03:03:44;98396.59;;;21.45;37.66
57574;BME280;68988;49.000;21.242;2023-04-30T03:06:09;98389.34;;;21.41;37.96
57574;BME280;68988;49.000;21.242;2023-04-30T03:08:35;98403.81;;;21.45;37.97
57574;BME280;68988;49.000;21.242;2023-04-30T03:11:00;98411.81;;;21.45;38.05
57574;BME280;68988;49.000;21.242;2023-04-30T03:13:25;98411.81;;;21.45;37.85
57574;BME280;68988;49.000;21.242;2023-04-30T03:16:01;98411.28;;;21.48;37.86
57574;BME280;68988;49.000;21.242;2023-04-30T03:18:29;98417.66;;;21.42;37.99
57574;BME280;68988;49.000;21.242;2023-04-30T03:20:55;98405.06;;;21.37;37.79
57574;BME280;68988;49.000;21.242;2023-04-30T03:23:20;98413.69;;;21.44;37.96
57574;BME280;68988;49.000;21.242;2023-04-30T03:25:46;98417.94;;;21.45;37.94
57574;BME280;68988;49.000;21.242;2023-04-30T03:28:12;98415.78;;;21.42;37.94
57574;BME280;68988;49.000;21.242;2023-04-30T03:30:37;98413.94;;;21.43;37.87
57574;BME280;68988;49.000;21.242;2023-04-30T03:33:03;98412.84;;;21.44;38.13
57574;BME280;68988;49.000;21.242;2023-04-30T03:35:31;98414.47;;;21.45;37.91
57574;BME280;68988;49.000;21.242;2023-04-30T03:37:56;98420.84;;;21.44;37.97
57574;BME280;68988;49.000;21.242;2023-04-30T03:40:21;98416.34;;;21.44;37.93
57574;BME280;68988;49.000;21.242;2023-04-30T03:42:47;98418.19;;;21.44;38.12
57574;BME280;68988;49.000;21.242;2023-04-30T03:45:12;98427.81;;;21.45;38.13
57574;BME280;68988;49.000;21.242;2023-04-30T03:47:38;98422.97;;;21.42;38.04
57574;BME280;68988;49.000;21.242;2023-04-30T03:50:03;98415.78;;;21.42;37.87
57574;BME280;68988;49.000;21.242;2023-04-30T03:52:29;98419.25;;;21.43;38.01
57574;BME280;68988;49.000;21.242;2023-04-30T03:54:55;98422.47;;;21.45;37.99
57574;BME280;68988;49.000;21.242;2023-04-30T03:57:21;98422.47;;;21.45;37.92
57574;BME280;68988;49.000;21.242;2023-04-30T03:59:47;98423.78;;;21.42;37.93
57574;BME280;68988;49.000;21.242;2023-04-30T04:02:13;98427.00;;;21.44;37.91
57574;BME280;68988;49.000;21.242;2023-04-30T04:04:38;98432.03;;;21.41;37.98
57574;BME280;68988;49.000;21.242;2023-04-30T04:07:04;98429.94;;;21.43;37.91
57574;BME280;68988;49.000;21.242;2023-04-30T04:09:32;98426.69;;;21.41;37.94
57574;BME280;68988;49.000;21.242;2023-04-30T04:11:57;98430.97;;;21.42;37.85
57574;BME280;68988;49.000;21.242;2023-04-30T04:14:22;98440.03;;;21.41;37.86
57574;BME280;68988;49.000;21.242;2023-04-30T04:16:48;98432.84;;;21.41;37.94
57574;BME280;68988;49.000;21.242;2023-04-30T04:19:13;98449.66;;;21.42;37.98
57574;BME280;68988;49.000;21.242;2023-04-30T04:21:38;98451.78;;;21.40;38.20
57574;BME280;68988;49.000;21.242;2023-04-30T04:24:04;98453.94;;;21.43;38.05
57574;BME280;68988;49.000;21.242;2023-04-30T04:26:34;98448.03;;;21.41;38.17
57574;BME280;68988;49.000;21.242;2023-04-30T04:29:00;98446.44;;;21.40;38.00
57574;BME280;68988;49.000;21.242;2023-04-30T04:31:26;98444.56;;;21.40;37.96
57574;BME280;68988;49.000;21.242;2023-04-30T04:33:52;98448.03;;;21.41;38.00
57574;BME280;68988;49.000;21.242;2023-04-30T04:36:22;98449.13;;;21.40;37.90
57574;BME280;68988;49.000;21.242;2023-04-30T04:38:48;98440.28;;;21.39;38.02
57574;BME280;68988;49.000;21.242;2023-04-30T04:41:13;98452.56;;;21.40;37.90
57574;BME280;68988;49.000;21.242;2023-04-30T04:43:38;98450.16;;;21.39;37.99
57574;BME280;68988;49.000;21.242;2023-04-30T04:46:04;98457.38;;;21.38;37.81
57574;BME280;68988;49.000;21.242;2023-04-30T04:48:29;98456.28;;;21.39;37.99
57574;BME280;68988;49.000;21.242;2023-04-30T04:50:55;98455.50;;;21.39;38.15
57574;BME280;68988;49.000;21.242;2023-04-30T04:53:20;98460.84;;;21.39;37.89
57574;BME280;68988;49.000;21.242;2023-04-30T04:55:45;98458.97;;;21.39;37.82
57574;BME280;68988;49.000;21.242;2023-04-30T04:58:11;98457.13;;;21.40;37.86
57574;BME280;68988;49.000;21.242;2023-04-30T05:00:37;98465.13;;;21.40;37.92
57574;BME280;68988;49.000;21.242;2023-04-30T05:03:03;98464.56;;;21.38;37.70
57574;BME280;68988;49.000;21.242;2023-04-30T05:05:28;98471.50;;;21.39;38.12
57574;BME280;68988;49.000;21.242;2023-04-30T05:07:54;98471.50;;;21.39;37.87
57574;BME280;68988;49.000;21.242;2023-04-30T05:10:19;98473.63;;;21.37;37.91
57574;BME280;68988;49.000;21.242;2023-04-30T05:12:45;98484.03;;;21.38;38.07
57574;BME280;68988;49.000;21.242;2023-04-30T05:15:11;98483.78;;;21.40;37.93
57574;BME280;68988;49.000;21.242;2023-04-30T05:17:36;98488.56;;;21.38;38.02
57574;BME280;68988;49.000;21.242;2023-04-30T05:20:02;98487.50;;;21.39;38.01
57574;BME280;68988;49.000;21.242;2023-04-30T05:22:27;98491.72;;;21.35;37.90
57574;BME280;68988;49.000;21.242;2023-04-30T05:24:52;98508.06;;;21.38;38.13
57574;BME280;68988;49.000;21.242;2023-04-30T05:27:18;98492.31;;;21.37;38.09
57574;BME280;68988;49.000;21.242;2023-04-30T05:29:43;98494.97;;;21.37;37.95
57574;BME280;68988;49.000;21.242;2023-04-30T05:32:09;98492.56;;;21.35;38.10
57574;BME280;68988;49.000;21.242;2023-04-30T05:34:34;98494.41;;;21.35;37.59
57574;BME280;68988;49.000;21.242;2023-04-30T05:39:25;98499.19;;;21.33;37.95
57574;BME280;68988;49.000;21.242;2023-04-30T05:41:51;98501.34;;;21.36;37.98
57574;BME280;68988;49.000;21.242;2023-04-30T05:44:16;98497.06;;;21.35;37.95
57574;BME280;68988;49.000;21.242;2023-04-30T05:46:42;98502.41;;;21.35;37.99
57574;BME280;68988;49.000;21.242;2023-04-30T05:49:07;98504.03;;;21.36;37.78
57574;BME280;68988;49.000;21.242;2023-04-30T05:51:32;98504.56;;;21.38;38.00
57574;BME280;68988;49.000;21.242;2023-04-30T05:56:24;98507.72;;;21.35;37.98
57574;BME280;68988;49.000;21.242;2023-04-30T05:58:50;98502.97;;;21.37;38.01
57574;BME280;68988;49.000;21.242;2023-04-30T06:01:18;98502.41;;;21.35;38.06
57574;BME280;68988;49.000;21.242;2023-04-30T06:03:43;98502.41;;;21.35;37.97
57574;BME280;68988;49.000;21.242;2023-04-30T06:06:09;98502.97;;;21.37;38.08
57574;BME280;68988;49.000;21.242;2023-04-30T06:08:35;98509.09;;;21.37;37.90
57574;BME280;68988;49.000;21.242;2023-04-30T06:11:00;98508.06;;;21.38;37.97
57574;BME280;68988;49.000;21.242;2023-04-30T06:13:28;98502.97;;;21.37;38.07
57574;BME280;68988;49.000;21.242;2023-04-30T06:15:53;98500.81;;;21.34;38.13
57574;BME280;68988;49.000;21.242;2023-04-30T06:18:18;98506.94;;;21.34;38.08
57574;BME280;68988;49.000;21.242;2023-04-30T06:20:44;98498.94;;;21.34;38.31
57574;BME280;68988;49.000;21.242;2023-04-30T06:23:10;98503.75;;;21.37;37.90
57574;BME280;68988;49.000;21.242;2023-04-30T06:25:35;98505.63;;;21.37;38.00
57574;BME280;68988;49.000;21.242;2023-04-30T06:28:01;98505.38;;;21.38;37.90
57574;BME280;68988;49.000;21.242;2023-04-30T06:30:26;98504.56;;;21.38;38.06
57574;BME280;68988;49.000;21.242;2023-04-30T06:35:17;98516.31;;;21.37;37.83
57574;BME280;68988;49.000;21.242;2023-04-30T06:37:42;98508.31;;;21.37;38.14
57574;BME280;68988;49.000;21.242;2023-04-30T06:40:08;98507.72;;;21.35;37.98
57574;BME280;68988;49.000;21.242;2023-04-30T06:42:34;98510.72;;;21.38;37.86
57574;BME280;68988;49.000;21.242;2023-04-30T06:45:03;98507.72;;;21.35;38.06
57574;BME280;68988;49.000;21.242;2023-04-30T06:47:30;98517.91;;;21.38;37.90
57574;BME280;68988;49.000;21.242;2023-04-30T06:50:01;98518.72;;;21.38;37.94
57574;BME280;68988;49.000;21.242;2023-04-30T06:52:26;98520.31;;;21.39;37.76
57574;BME280;68988;49.000;21.242;2023-04-30T06:54:52;98523.22;;;21.38;37.87
57574;BME280;68988;49.000;21.242;2023-04-30T06:57:17;98522.72;;;21.41;37.92
57574;BME280;68988;49.000;21.242;2023-04-30T06:59:43;98523.22;;;21.38;37.91
57574;BME280;68988;49.000;21.242;2023-04-30T07:02:08;98520.31;;;21.39;37.83
57574;BME280;68988;49.000;21.242;2023-04-30T07:04:34;98525.66;;;21.39;37.87
57574;BME280;68988;49.000;21.242;2023-04-30T07:06:59;98522.19;;;21.39;37.88
57574;BME280;68988;49.000;21.242;2023-04-30T07:09:26;98522.19;;;21.39;37.97
57574;BME280;68988;49.000;21.242;2023-04-30T07:11:53;98522.19;;;21.39;37.76
57574;BME280;68988;49.000;21.242;2023-04-30T07:14:18;98517.38;;;21.41;37.74
57574;BME280;68988;49.000;21.242;2023-04-30T07:16:44;98520.31;;;21.39;38.13
57574;BME280;68988;49.000;21.242;2023-04-30T07:19:09;98515.81;;;21.40;38.09
57574;BME280;68988;49.000;21.242;2023-04-30T07:21:34;98513.69;;;21.42;37.80
57574;BME280;68988;49.000;21.242;2023-04-30T07:24:00;98508.34;;;21.42;37.86
57574;BME280;68988;49.000;21.242;2023-04-30T07:26:25;98522.22;;;21.44;37.79
57574;BME280;68988;49.000;21.242;2023-04-30T07:28:51;98519.31;;;21.45;37.81
57574;BME280;68988;49.000;21.242;2023-04-30T07:31:16;98527.56;;;21.44;37.92
57574;BME280;68988;49.000;21.242;2023-04-30T07:33:43;98520.13;;;21.46;37.79
57574;BME280;68988;49.000;21.242;2023-04-30T07:36:09;98520.13;;;21.46;37.71
57574;BME280;68988;49.000;21.242;2023-04-30T07:38:34;98531.59;;;21.46;37.72
57574;BME280;68988;49.000;21.242;2023-04-30T07:41:00;98534.50;;;21.45;37.68
57574;BME280;68988;49.000;21.242;2023-04-30T07:43:27;98530.78;;;21.46;37.87
57574;BME280;68988;49.000;21.242;2023-04-30T07:45:52;98536.13;;;21.46;37.79
57574;BME280;68988;49.000;21.242;2023-04-30T07:48:19;98531.59;;;21.46;37.70
57574;BME280;68988;49.000;21.242;2023-04-30T07:50:47;98534.00;;;21.48;37.85
57574;BME280;68988;49.000;21.242;2023-04-30T07:53:12;98537.25;;;21.50;38.04
57574;BME280;68988;49.000;21.242;2023-04-30T07:55:38;98545.25;;;21.50;37.76
57574;BME280;68988;49.000;21.242;2023-04-30T07:58:03;98538.88;;;21.51;37.83
57574;BME280;68988;49.000;21.242;2023-04-30T08:00:28;98543.41;;;21.51;37.90
57574;BME280;68988;49.000;21.242;2023-04-30T08:02:57;98543.16;;;21.52;37.76
57574;BME280;68988;49.000;21.242;2023-04-30T08:05:22;98544.22;;;21.51;37.75
57574;BME280;68988;49.000;21.242;2023-04-30T08:07:47;98545.81;;;21.52;37.74
57574;BME280;68988;49.000;21.242;2023-04-30T08:10:13;98552.75;;;21.53;37.51
57574;BME280;68988;49.000;21.242;2023-04-30T08:12:38;98553.56;;;21.54;37.87
57574;BME280;68988;49.000;21.242;2023-04-30T08:15:04;98551.94;;;21.53;37.83
57574;BME280;68988;49.000;21.242;2023-04-30T08:17:32;98551.94;;;21.53;37.74
57574;BME280;68988;49.000;21.242;2023-04-30T08:19:58;98558.09;;;21.53;37.80
57574;BME280;68988;49.000;21.242;2023-04-30T08:22:24;98549.28;;;21.53;37.69
57574;BME280;68988;49.000;21.242;2023-04-30T08:24:49;98554.38;;;21.54;37.59
57574;BME280;68988;49.000;21.242;2023-04-30T08:27:15;98548.50;;;21.52;37.54
57574;BME280;68988;49.000;21.242;2023-04-30T08:29:41;98563.44;;;21.53;37.55
57574;BME280;68988;49.000;21.242;2023-04-30T08:32:06;98559.72;;;21.54;37.76
57574;BME280;68988;49.000;21.242;2023-04-30T08:34:33;98567.16;;;21.52;37.83
57574;BME280;68988;49.000;21.242;2023-04-30T08:36:58;98568.75;;;21.53;37.83
57574;BME280;68988;49.000;21.242;2023-04-30T08:39:24;98571.69;;;21.52;37.86
57574;BME280;68988;49.000;21.242;2023-04-30T08:41:54;98583.72;;;21.54;37.68
57574;BME280;68988;49.000;21.242;2023-04-30T08:44:21;98572.50;;;21.52;37.58
57574;BME280;68988;49.000;21.242;2023-04-30T08:46:54;98580.75;;;21.51;37.61
57574;BME280;68988;49.000;21.242;2023-04-30T08:49:21;98589.81;;;21.50;37.83
57574;BME280;68988;49.000;21.242;2023-04-30T08:51:48;98588.75;;;21.51;37.81
57574;BME280;68988;49.000;21.242;2023-04-30T08:54:14;98586.25;;;21.44;38.04
57574;BME280;68988;49.000;21.242;2023-04-30T08:56:40;98585.28;;;21.50;37.69
57574;BME280;68988;49.000;21.242;2023-04-30T08:59:06;98590.59;;;21.50;37.89
57574;BME280;68988;49.000;21.242;2023-04-30T09:01:33;98599.91;;;21.48;37.72
57574;BME280;68988;49.000;21.242;2023-04-30T09:03:59;98599.09;;;21.47;37.69
57574;BME280;68988;49.000;21.242;2023-04-30T09:06:24;98593.50;;;21.49;37.92
57574;BME280;68988;49.000;21.242;2023-04-30T09:08:51;98593.75;;;21.47;37.75
57574;BME280;68988;49.000;21.242;2023-04-30T09:11:25;98599.19;;;21.52;37.80
57574;BME280;68988;49.000;21.242;2023-04-30T09:13:53;98596.78;;;21.51;37.98
57574;BME280;68988;49.000;21.242;2023-04-30T09:16:23;98604.53;;;21.52;37.84
57574;BME280;68988;49.000;21.242;2023-04-30T09:18:49;98602.00;;;21.45;37.56
57574;BME280;68988;49.000;21.242;2023-04-30T09:21:15;98604.16;;;21.49;37.64
57574;BME280;68988;49.000;21.242;2023-04-30T09:23:56;98609.84;;;21.52;37.86
57574;BME280;68988;49.000;21.242;2023-04-30T09:26:36;98616.78;;;21.53;37.86
57574;BME280;68988;49.000;21.242;2023-04-30T09:29:02;98616.97;;;21.46;37.83
57574;BME280;68988;49.000;21.242;2023-04-30T09:31:35;98613.56;;;21.51;37.67
57574;BME280;68988;49.000;21.242;2023-04-30T09:34:01;98618.59;;;21.48;38.08
57574;BME280;68988;49.000;21.242;2023-04-30T09:36:26;98621.03;;;21.49;37.97
57574;BME280;68988;49.000;21.242;2023-04-30T09:38:52;98614.03;;;21.48;37.78
57574;BME280;68988;49.000;21.242;2023-04-30T09:41:23;98621.81;;;21.50;37.68
57574;BME280;68988;49.000;21.242;2023-04-30T09:43:49;98620.38;;;21.42;37.78
57574;BME280;68988;49.000;21.242;2023-04-30T09:46:17;98626.59;;;21.48;37.90
57574;BME280;68988;49.000;21.242;2023-04-30T09:48:43;98626.84;;;21.46;37.94
57574;BME280;68988;49.000;21.242;2023-04-30T09:51:09;98634.59;;;21.48;37.91
57574;BME280;68988;49.000;21.242;2023-04-30T09:53:37;98630.06;;;21.48;37.98
57574;BME280;68988;49.000;21.242;2023-04-30T09:56:06;98627.97;;;21.50;37.95
57574;BME280;68988;49.000;21.242;2023-04-30T09:58:35;98637.59;;;21.51;37.96
57574;BME280;68988;49.000;21.242;2023-04-30T10:01:04;98650.13;;;21.51;37.89
57574;BME280;68988;49.000;21.242;2023-04-30T10:03:31;98652.78;;;21.51;37.85
57574;BME280;68988;49.000;21.242;2023-04-30T10:05:58;98640.72;;;21.48;37.36
57574;BME280;68988;49.000;21.242;2023-04-30T10:08:31;98652.53;;;21.52;37.77
57574;BME280;68988;49.000;21.242;2023-04-30T10:11:02;98647.47;;;21.51;37.94
57574;BME280;68988;49.000;21.242;2023-04-30T10:13:31;98639.47;;;21.51;38.11
57574;BME280;68988;49.000;21.242;2023-04-30T10:16:11;98640.53;;;21.55;37.87
57574;BME280;68988;49.000;21.242;2023-04-30T10:18:45;98649.31;;;21.50;38.04
57574;BME280;68988;49.000;21.242;2023-04-30T10:21:12;98642.38;;;21.49;38.07
57574;BME280;68988;49.000;21.242;2023-04-30T10:23:38;98647.72;;;21.49;38.17
57574;BME280;68988;49.000;21.242;2023-04-30T10:26:07;98645.84;;;21.50;38.10
57574;BME280;68988;49.000;21.242;2023-04-30T10:28:33;98654.63;;;21.50;37.91
57574;BME280;68988;49.000;21.242;2023-04-30T10:30:59;98649.31;;;21.50;37.90
57574;BME280;68988;49.000;21.242;2023-04-30T10:33:33;98657.88;;;21.52;37.90
57574;BME280;68988;49.000;21.242;2023-04-30T10:36:04;98645.03;;;21.49;37.91
57574;BME280;68988;49.000;21.242;2023-04-30T10:38:31;98648.50;;;21.50;37.90
57574;BME280;68988;49.000;21.242;2023-04-30T10:41:01;98655.22;;;21.52;38.26
57574;BME280;68988;49.000;21.242;2023-04-30T10:43:29;98650.91;;;21.51;37.96
57574;BME280;68988;49.000;21.242;2023-04-30T10:45:56;98662.63;;;21.50;38.04
57574;BME280;68988;49.000;21.242;2023-04-30T10:48:25;98658.94;;;21.51;37.89
57574;BME280;68988;49.000;21.242;2023-04-30T10:50:56;98653.59;;;21.51;37.87
57574;BME280;68988;49.000;21.242;2023-04-30T10:53:22;98654.84;;;21.49;38.06
57574;BME280;68988;49.000;21.242;2023-04-30T10:56:03;98655.25;;;21.57;37.81
57574;BME280;68988;49.000;21.242;2023-04-30T10:58:33;98652.53;;;21.52;37.89
57574;BME280;68988;49.000;21.242;2023-04-30T11:01:05;98657.31;;;21.50;37.87
57574;BME280;68988;49.000;21.242;2023-04-30T11:03:33;98653.59;;;21.51;37.89
57574;BME280;68988;49.000;21.242;2023-04-30T11:06:00;98662.63;;;21.50;37.90
57574;BME280;68988;49.000;21.242;2023-04-30T11:08:33;98665.31;;;21.50;37.95
57574;BME280;68988;49.000;21.242;2023-04-30T11:10:59;98664.50;;;21.50;37.91
57574;BME280;68988;49.000;21.242;2023-04-30T11:13:26;98663.72;;;21.49;37.78
57574;BME280;68988;49.000;21.242;2023-04-30T11:15:52;98670.66;;;21.50;37.75
57574;BME280;68988;49.000;21.242;2023-04-30T11:18:17;98674.38;;;21.49;37.64
57574;BME280;68988;49.000;21.242;2023-04-30T11:20:50;98670.16;;;21.53;37.94
57574;BME280;68988;49.000;21.242;2023-04-30T11:23:22;98667.97;;;21.50;37.65
57574;BME280;68988;49.000;21.242;2023-04-30T11:25:48;98665.31;;;21.50;37.95
57574;BME280;68988;49.000;21.242;2023-04-30T11:30:59;98673.38;;;21.55;37.47
57574;BME280;68988;49.000;21.242;2023-04-30T11:33:27;98673.53;;;21.49;37.92
57574;BME280;68988;49.000;21.242;2023-04-30T11:35:54;98690.41;;;21.49;37.72
57574;BME280;68988;49.000;21.242;2023-04-30T11:38:27;98680.81;;;21.53;37.69
57574;BME280;68988;49.000;21.242;2023-04-30T11:40:53;98694.88;;;21.49;37.72
57574;BME280;68988;49.000;21.242;2023-04-30T11:43:31;98689.06;;;21.52;37.88
57574;BME280;68988;49.000;21.242;2023-04-30T11:46:17;98692.63;;;21.57;37.90
57574;BME280;68988;49.000;21.242;2023-04-30T11:48:44;98694.06;;;21.48;37.83
57574;BME280;68988;49.000;21.242;2023-04-30T11:51:19;98689.91;;;21.52;37.73
57574;BME280;68988;49.000;21.242;2023-04-30T11:53:47;98702.09;;;21.48;37.69
57574;BME280;68988;49.000;21.242;2023-04-30T11:56:16;98705.53;;;21.49;37.83
57574;BME280;68988;49.000;21.242;2023-04-30T11:58:42;98703.72;;;21.49;37.59
57574;BME280;68988;49.000;21.242;2023-04-30T12:01:10;98713.00;;;21.46;37.77
57574;BME280;68988;49.000;21.242;2023-04-30T12:03:43;98712.53;;;21.50;37.59
57574;BME280;68988;49.000;21.242;2023-04-30T12:06:10;98711.38;;;21.45;37.89
57574;BME280;68988;49.000;21.242;2023-04-30T12:08:35;98710.59;;;21.45;37.98
57574;BME280;68988;49.000;21.242;2023-04-30T12:11:01;98710.03;;;21.43;37.68
57574;BME280;68988;49.000;21.242;2023-04-30T12:13:30;98707.91;;;21.45;37.87
57574;BME280;68988;49.000;21.242;2023-04-30T12:15:59;98707.38;;;21.43;37.80
57574;BME280;68988;49.000;21.242;2023-04-30T12:18:25;98701.69;;;21.39;38.01
57574;BME280;68988;49.000;21.242;2023-04-30T12:20:51;98707.63;;;21.41;37.85
57574;BME280;68988;49.000;21.242;2023-04-30T12:23:18;98705.75;;;21.42;37.89
57574;BME280;68988;49.000;21.242;2023-04-30T12:25:43;98703.63;;;21.44;37.79
57574;BME280;68988;49.000;21.242;2023-04-30T12:28:09;98703.31;;;21.40;37.98
57574;BME280;68988;49.000;21.242;2023-04-30T12:30:35;98705.19;;;21.40;37.95
57574;BME280;68988;49.000;21.242;2023-04-30T12:33:01;98713.75;;;21.42;37.74
57574;BME280;68988;49.000;21.242;2023-04-30T12:35:29;98712.38;;;21.39;37.90
57574;BME280;68988;49.000;21.242;2023-04-30T12:38:05;98707.38;;;21.43;37.87
57574;BME280;68988;49.000;21.242;2023-04-30T12:40:32;98714.25;;;21.39;37.67
57574;BME280;68988;49.000;21.242;2023-04-30T12:43:06;98709.22;;;21.42;37.82
57574;BME280;68988;49.000;21.242;2023-04-30T12:45:48;98705.25;;;21.45;37.74
57574;BME280;68988;49.000;21.242;2023-04-30T12:48:15;98696.06;;;21.36;37.98
57574;BME280;68988;49.000;21.242;2023-04-30T12:50:41;98698.25;;;21.39;37.97
57574;BME280;68988;49.000;21.242;2023-04-30T12:53:07;98703.81;;;21.37;38.00
57574;BME280;68988;49.000;21.242;2023-04-30T12:55:33;98697.69;;;21.37;37.88
57574;BME280;68988;49.000;21.242;2023-04-30T12:58:12;98707.63;;;21.41;37.93
57574;BME280;68988;49.000;21.242;2023-04-30T13:00:46;98701.44;;;21.41;37.86
57574;BME280;68988;49.000;21.242;2023-04-30T13:03:12;98691.28;;;21.38;37.87
57574;BME280;68988;49.000;21.242;2023-04-30T13:05:39;98695.03;;;21.37;37.97
57574;BME280;68988;49.000;21.242;2023-04-30T13:08:05;98701.94;;;21.38;37.94
57574;BME280;68988;49.000;21.242;2023-04-30T13:10:31;98687.03;;;21.37;37.77
57574;BME280;68988;49.000;21.242;2023-04-30T13:12:57;98699.28;;;21.38;37.94
57574;BME280;68988;49.000;21.242;2023-04-30T13:15:23;98682.97;;;21.34;37.86
57574;BME280;68988;49.000;21.242;2023-04-30T13:17:49;98686.53;;;21.40;37.86